Time;durP1;ratioP1;P1;durP2;ratioP2;P2;SDS_P1;SDS_P2;PMS_P1;PMS_P2;Temp;Humidity;BMP_temperature;BMP_pressure;BME280_temperature;BME280_humidity;BME280_pressure;Samples;Min_cycle;Max_cycle;Signal;HPM_P1;HPM_P2
2022/08/14 00:00:10;;;;;;;;;;;;;;;23.20;96.63;153487.17;1769665;81;20146;-75
2022/08/14 00:02:38;;;;;;;;;;;;;;;23.16;96.55;153479.33;1769887;81;20173;-75
2022/08/14 00:05:08;;;;;;;;;;;;;;;23.09;96.65;153459.69;1774939;80;20136;-75
2022/08/14 00:07:34;;;;;;;;;;;;;;;23.02;97.35;153444.00;1794398;80;20131;-75
2022/08/14 00:10:06;;;;;;;;;;;;;;;23.03;97.46;153445.28;1794091;80;21086;-75
2022/08/14 00:12:33;;;;;;;;;;;;;;;23.01;97.30;153440.06;1775202;80;20438;-75
2022/08/14 00:15:01;;;;;;;;;;;;;;;23.01;97.42;153440.06;1770077;81;20173;-75
2022/08/14 00:17:28;;;;;;;;;;;;;;;23.01;97.24;153441.39;1758863;81;20429;-75
2022/08/14 00:19:55;;;;;;;;;;;;;;;23.02;96.78;153442.67;1739082;81;20211;-59
2022/08/14 00:22:21;;;;;;;;;;;;;;;23.03;96.86;153445.28;1737907;82;21141;-59
2022/08/14 00:24:48;;;;;;;;;;;;;;;23.07;96.79;153454.47;1737888;82;20162;-59
2022/08/14 00:27:15;;;;;;;;;;;;;;;23.11;97.31;153466.25;1738015;82;20191;-59
2022/08/14 00:29:42;;;;;;;;;;;;;;;23.12;97.10;153468.88;1737737;82;20773;-59
2022/08/14 00:32:09;;;;;;;;;;;;;;;23.11;97.87;153466.25;1738096;82;20168;-59
2022/08/14 00:34:35;;;;;;;;;;;;;;;23.12;97.88;153468.88;1737781;82;21243;-60
2022/08/14 00:37:04;;;;;;;;;;;;;;;23.09;98.07;153460.98;1737858;82;20163;-60
2022/08/14 00:39:31;;;;;;;;;;;;;;;23.08;98.51;153458.36;1738073;82;20184;-60
2022/08/14 00:41:57;;;;;;;;;;;;;;;23.10;98.76;153463.64;1737643;82;20148;-77
2022/08/14 00:44:24;;;;;;;;;;;;;;;23.13;98.82;153470.16;1737613;82;20448;-76
2022/08/14 00:46:51;;;;;;;;;;;;;;;23.17;98.95;153481.94;1737805;82;21316;-59
2022/08/14 00:49:17;;;;;;;;;;;;;;;23.24;98.53;153497.64;1737754;82;20164;-75
2022/08/14 00:51:44;;;;;;;;;;;;;;;23.27;98.14;153505.53;1737843;82;20191;-75
2022/08/14 00:54:11;;;;;;;;;;;;;;;23.27;97.76;153506.86;1737958;82;20472;-76
2022/08/14 00:56:38;;;;;;;;;;;;;;;23.28;97.38;153508.14;1737877;82;20196;-76
2022/08/14 00:59:05;;;;;;;;;;;;;;;23.25;96.93;153500.25;1737658;82;21259;-77
2022/08/14 01:01:32;;;;;;;;;;;;;;;23.22;96.80;153492.41;1737281;82;20523;-59
2022/08/14 01:03:59;;;;;;;;;;;;;;;23.20;96.61;153487.17;1737447;82;20187;-59
2022/08/14 01:06:26;;;;;;;;;;;;;;;23.22;96.15;153492.41;1737164;82;20203;-59
2022/08/14 01:08:54;;;;;;;;;;;;;;;23.20;95.74;153487.17;1737168;82;20508;-59
2022/08/14 01:11:22;;;;;;;;;;;;;;;23.18;95.52;153484.56;1713485;82;22000;-76
2022/08/14 01:13:49;;;;;;;;;;;;;;;23.17;95.55;153481.94;1737219;82;20189;-76
2022/08/14 01:16:16;;;;;;;;;;;;;;;23.17;95.62;153481.94;1736917;81;20185;-59
2022/08/14 01:21:33;;;;;;;;;;;;;;;23.27;95.54;153506.86;1769606;81;35482;-58
2022/08/14 01:24:00;;;;;;;;;;;;;;;23.34;95.10;153523.88;1769396;81;21248;-75
2022/08/14 01:26:27;;;;;;;;;;;;;;;23.37;94.53;153530.39;1769140;81;20137;-58
2022/08/14 01:28:56;;;;;;;;;;;;;;;23.43;94.51;153547.42;1769219;81;20209;-58
2022/08/14 01:31:24;;;;;;;;;;;;;;;23.48;93.80;153559.22;1770032;81;20125;-75
2022/08/14 01:33:55;;;;;;;;;;;;;;;23.52;93.05;153568.34;1769537;81;20166;-75
2022/08/14 01:36:20;;;;;;;;;;;;;;;23.52;92.81;153568.34;1769980;81;22059;-75
2022/08/14 01:38:47;;;;;;;;;;;;;;;23.52;92.64;153568.34;1768997;81;20193;-74
2022/08/14 01:41:16;;;;;;;;;;;;;;;23.53;92.67;153570.95;1769673;81;20201;-74
2022/08/14 01:43:50;;;;;;;;;;;;;;;23.55;92.71;153576.23;1769380;81;20173;-75
2022/08/14 01:46:18;;;;;;;;;;;;;;;23.55;92.32;153576.23;1769636;81;20213;-74
2022/08/14 01:48:47;;;;;;;;;;;;;;;23.53;92.29;153570.95;1769401;81;21225;-74
2022/08/14 01:51:15;;;;;;;;;;;;;;;23.53;92.67;153572.28;1769564;81;20166;-75
2022/08/14 01:53:46;;;;;;;;;;;;;;;23.50;92.58;153564.44;1769808;81;20314;-75
2022/08/14 01:56:17;;;;;;;;;;;;;;;23.43;93.15;153546.09;1769604;81;20172;-75
2022/08/14 01:58:47;;;;;;;;;;;;;;;23.39;93.43;153536.97;1742930;81;20212;-75
2022/08/14 02:01:15;;;;;;;;;;;;;;;23.37;93.72;153531.73;1769907;81;21311;-74
2022/08/14 02:03:42;;;;;;;;;;;;;;;23.32;93.95;153518.61;1769633;81;20173;-75
2022/08/14 02:06:10;;;;;;;;;;;;;;;23.31;94.40;153516.00;1790945;79;20191;-74
2022/08/14 02:08:39;;;;;;;;;;;;;;;23.31;94.40;153516.00;1801205;79;20187;-74
2022/08/14 02:11:23;;;;;;;;;;;;;;;23.28;94.53;153508.14;1787896;79;20127;-74
2022/08/14 02:13:58;;;;;;;;;;;;;;;23.25;94.66;153500.25;1739586;82;21197;-75
2022/08/14 02:16:28;;;;;;;;;;;;;;;23.22;94.86;153492.41;1739176;82;20437;-74
2022/08/14 02:18:56;;;;;;;;;;;;;;;23.16;94.92;153479.33;1755328;81;20169;-59
2022/08/14 02:21:24;;;;;;;;;;;;;;;23.08;95.03;153458.36;1769858;81;20181;-58
2022/08/14 02:23:51;;;;;;;;;;;;;;;22.98;95.73;153433.50;1769575;81;20180;-73
2022/08/14 02:26:25;;;;;;;;;;;;;;;22.93;96.35;153419.14;1769945;81;21245;-74
2022/08/14 02:28:54;;;;;;;;;;;;;;;22.86;96.79;153403.41;1769668;81;20214;-73
2022/08/14 02:31:21;;;;;;;;;;;;;;;22.77;97.54;153378.55;1769898;81;20218;-74
2022/08/14 02:33:48;;;;;;;;;;;;;;;22.71;98.43;153364.19;1769516;81;20202;-74
2022/08/14 02:36:15;;;;;;;;;;;;;;;22.73;99.04;153369.42;1769740;81;20636;-74
2022/08/14 02:38:42;;;;;;;;;;;;;;;22.77;99.24;153379.88;1769663;81;22110;-75
2022/08/14 02:41:09;;;;;;;;;;;;;;;22.80;99.50;153386.44;1769650;81;20193;-74
2022/08/14 02:43:38;;;;;;;;;;;;;;;22.83;99.45;153395.56;1769571;81;20458;-58
2022/08/14 02:46:08;;;;;;;;;;;;;;;22.81;99.56;153390.34;1769240;81;20201;-58
2022/08/14 02:48:38;;;;;;;;;;;;;;;22.83;100.00;153395.56;1769558;81;20201;-58
2022/08/14 02:51:07;;;;;;;;;;;;;;;22.85;100.00;153399.50;1769257;81;21238;-59
2022/08/14 02:53:34;;;;;;;;;;;;;;;22.89;100.00;153409.97;1769629;81;20556;-59
2022/08/14 02:56:00;;;;;;;;;;;;;;;22.87;100.00;153406.02;1769345;81;20197;-59
2022/08/14 02:58:27;;;;;;;;;;;;;;;22.85;100.00;153400.80;1769402;81;20173;-59
2022/08/14 03:00:54;;;;;;;;;;;;;;;22.86;100.00;153403.41;1769782;81;20198;-59
2022/08/14 03:03:22;;;;;;;;;;;;;;;22.87;100.00;153404.73;1769958;81;21225;-59
2022/08/14 03:05:50;;;;;;;;;;;;;;;22.86;100.00;153403.41;1782283;80;20184;-59
2022/08/14 03:08:17;;;;;;;;;;;;;;;22.83;100.00;153395.56;1794481;80;20679;-59
2022/08/14 03:10:45;;;;;;;;;;;;;;;22.88;100.00;153408.69;1792602;80;20435;-59
2022/08/14 03:13:11;;;;;;;;;;;;;;;22.93;100.00;153419.14;1769622;81;20220;-59
2022/08/14 03:15:52;;;;;;;;;;;;;;;22.91;100.00;153413.91;1769389;81;21185;-59
2022/08/14 03:18:22;;;;;;;;;;;;;;;22.87;100.00;153406.02;1760584;81;20207;-58
2022/08/14 03:20:47;;;;;;;;;;;;;;;22.83;100.00;153395.56;1739228;82;20171;-59
2022/08/14 03:23:14;;;;;;;;;;;;;;;22.78;100.00;153382.50;1739399;81;20794;-59
2022/08/14 03:25:43;;;;;;;;;;;;;;;22.75;100.00;153374.66;1739381;82;20171;-59
2022/08/14 03:28:10;;;;;;;;;;;;;;;22.71;100.00;153365.47;1739511;82;21213;-76
2022/08/14 03:30:37;;;;;;;;;;;;;;;22.67;100.00;153353.73;1739910;82;20212;-77
2022/08/14 03:33:04;;;;;;;;;;;;;;;22.62;100.00;153341.95;1739537;82;20179;-77
2022/08/14 03:35:32;;;;;;;;;;;;;;;22.61;100.00;153339.34;1739657;81;20190;-76
2022/08/14 03:38:10;;;;;;;;;;;;;;;22.60;100.00;153336.72;1739772;82;20164;-77
2022/08/14 03:40:39;;;;;;;;;;;;;;;22.58;100.00;153332.78;1739826;81;21132;-78
2022/08/14 03:43:08;;;;;;;;;;;;;;;22.55;100.00;153324.94;1739389;82;20196;-77
2022/08/14 03:45:36;;;;;;;;;;;;;;;22.54;100.00;153322.31;1739752;81;20545;-59
2022/08/14 03:48:05;;;;;;;;;;;;;;;22.56;100.00;153327.55;1739221;82;20969;-58
2022/08/14 03:50:33;;;;;;;;;;;;;;;22.59;100.00;153335.39;1738919;82;20183;-58
2022/08/14 03:53:01;;;;;;;;;;;;;;;22.59;100.00;153335.39;1739563;82;21805;-76
2022/08/14 03:55:27;;;;;;;;;;;;;;;22.61;100.00;153340.63;1739903;81;20139;-76
2022/08/14 03:57:54;;;;;;;;;;;;;;;22.65;100.00;153348.47;1739545;82;20444;-75
2022/08/14 04:00:22;;;;;;;;;;;;;;;22.70;100.00;153361.58;1739597;81;20192;-58
2022/08/14 04:02:49;;;;;;;;;;;;;;;22.74;100.00;153372.03;1739653;81;20192;-59
2022/08/14 04:05:16;;;;;;;;;;;;;;;22.74;100.00;153372.03;1739432;81;22133;-59
2022/08/14 04:07:42;;;;;;;;;;;;;;;22.74;100.00;153373.31;1739164;81;20203;-75
2022/08/14 04:10:09;;;;;;;;;;;;;;;22.80;100.00;153387.72;1739646;81;20159;-59
2022/08/14 04:12:37;;;;;;;;;;;;;;;22.91;100.00;153413.91;1763383;81;20598;-59
2022/08/14 04:15:05;;;;;;;;;;;;;;;23.04;100.00;153449.23;1768041;81;20181;-58
2022/08/14 04:17:32;;;;;;;;;;;;;;;23.17;100.00;153481.94;1768383;81;21829;-59
2022/08/14 04:20:02;;;;;;;;;;;;;;;23.28;100.00;153508.14;1739993;81;20472;-75
2022/08/14 04:22:32;;;;;;;;;;;;;;;23.38;100.00;153534.34;1739308;82;20174;-76
2022/08/14 04:25:00;;;;;;;;;;;;;;;23.49;100.00;153561.83;1739112;82;20596;-75
2022/08/14 04:27:26;;;;;;;;;;;;;;;23.58;100.00;153585.37;1739529;82;20135;-75
2022/08/14 04:29:53;;;;;;;;;;;;;;;23.67;100.00;153606.34;1738991;82;21280;-75
2022/08/14 04:32:25;;;;;;;;;;;;;;;23.73;100.00;153622.03;1738941;82;20160;-75
2022/08/14 04:34:49;;;;;;;;;;;;;;;23.83;100.00;153646.91;1738589;82;20180;-76
2022/08/14 04:45:39;;;;;;;;;;;;;;;24.37;97.63;153783.11;1738560;82;21182;-59
2022/08/14 04:48:14;;;;;;;;;;;;;;;24.50;96.78;153817.17;1738795;82;20412;-59
2022/08/14 04:50:45;;;;;;;;;;;;;;;24.66;96.25;153856.48;1738934;82;20527;-60
2022/08/14 04:53:14;;;;;;;;;;;;;;;24.86;95.34;153908.88;1738723;82;20183;-75
2022/08/14 04:55:43;;;;;;;;;;;;;;;25.01;93.88;153945.56;1739103;82;22852;-59
2022/08/14 04:58:10;;;;;;;;;;;;;;;25.15;93.09;153980.94;1738697;82;20288;-59
2022/08/14 05:00:39;;;;;;;;;;;;;;;25.29;92.20;154017.64;1738691;82;20155;-74
2022/08/14 05:03:06;;;;;;;;;;;;;;;25.40;91.01;154045.16;1738785;82;20171;-74
2022/08/14 05:05:34;;;;;;;;;;;;;;;25.49;90.36;154067.48;1765644;79;20116;-75
2022/08/14 05:08:08;;;;;;;;;;;;;;;25.61;89.76;154097.63;1800973;79;21887;-75
2022/08/14 05:10:36;;;;;;;;;;;;;;;25.73;89.38;154129.05;1801510;79;20160;-74
2022/08/14 05:13:04;;;;;;;;;;;;;;;25.90;88.73;154171.00;1769416;81;20201;-74
2022/08/14 05:15:35;;;;;;;;;;;;;;;26.05;87.91;154207.72;1769198;81;20221;-74
2022/08/14 05:18:08;;;;;;;;;;;;;;;26.17;86.94;154239.19;1769075;81;20136;-59
2022/08/14 05:20:34;;;;;;;;;;;;;;;26.34;86.35;154281.16;1767867;81;21229;-73
2022/08/14 05:23:02;;;;;;;;;;;;;;;26.51;85.20;154325.73;1769006;81;20229;-58
2022/08/14 05:25:29;;;;;;;;;;;;;;;26.63;83.67;154354.56;1769124;81;20211;-58
2022/08/14 05:27:59;;;;;;;;;;;;;;;26.71;82.82;154376.86;1768787;81;20172;-59
2022/08/14 05:30:24;;;;;;;;;;;;;;;26.74;82.58;154383.44;1769606;81;20117;-59
2022/08/14 05:32:51;;;;;;;;;;;;;;;26.82;82.33;154404.39;1769103;81;21272;-59
2022/08/14 05:35:19;;;;;;;;;;;;;;;26.90;81.81;154424.13;1769271;81;20443;-59
2022/08/14 05:37:46;;;;;;;;;;;;;;;26.94;81.76;154433.31;1769383;81;20461;-59
2022/08/14 05:40:12;;;;;;;;;;;;;;;27.02;81.69;154454.28;1769133;81;20213;-75
2022/08/14 05:42:39;;;;;;;;;;;;;;;27.11;81.57;154477.91;1769352;81;20173;-74
2022/08/14 05:45:07;;;;;;;;;;;;;;;27.26;81.40;154515.94;1769480;81;21325;-74
2022/08/14 05:47:39;;;;;;;;;;;;;;;27.38;80.69;154546.11;1769566;81;20129;-74
2022/08/14 05:50:10;;;;;;;;;;;;;;;27.50;79.84;154576.28;1769506;81;20421;-75
2022/08/14 05:52:37;;;;;;;;;;;;;;;27.58;79.24;154596.02;1769681;81;20185;-61
2022/08/14 05:55:05;;;;;;;;;;;;;;;27.63;78.81;154609.13;1769396;81;20213;-60
2022/08/14 05:57:32;;;;;;;;;;;;;;;27.79;78.52;154648.50;1769886;81;21168;-60
2022/08/14 05:59:59;;;;;;;;;;;;;;;27.88;77.81;154673.44;1769201;81;20294;-61
2022/08/14 06:02:25;;;;;;;;;;;;;;;28.00;77.20;154703.61;1769425;81;20173;-61
2022/08/14 06:04:53;;;;;;;;;;;;;;;28.14;76.93;154739.03;1772465;80;20356;-61
2022/08/14 06:07:20;;;;;;;;;;;;;;;28.27;75.98;154771.89;1793881;80;20480;-77
2022/08/14 06:09:47;;;;;;;;;;;;;;;28.36;74.98;154792.88;1793980;80;21189;-77
2022/08/14 06:12:13;;;;;;;;;;;;;;;28.29;74.75;154777.12;1777520;80;20193;-75
2022/08/14 06:14:41;;;;;;;;;;;;;;;28.29;74.83;154777.12;1769532;81;20438;-75
2022/08/14 06:17:08;;;;;;;;;;;;;;;28.34;74.18;154788.95;1769458;81;20180;-76
2022/08/14 06:19:36;;;;;;;;;;;;;;;28.29;74.37;154777.12;1769357;81;20189;-75
2022/08/14 06:22:03;;;;;;;;;;;;;;;28.30;74.08;154779.75;1769579;81;21134;-76
2022/08/14 06:24:30;;;;;;;;;;;;;;;28.34;74.17;154787.62;1769539;81;20320;-75
2022/08/14 06:26:57;;;;;;;;;;;;;;;28.40;73.89;154803.36;1769484;81;20189;-75
2022/08/14 06:29:23;;;;;;;;;;;;;;;28.41;73.56;154806.03;1769503;81;20085;-75
2022/08/14 06:31:51;;;;;;;;;;;;;;;28.42;73.83;154809.94;1769665;81;20153;-75
2022/08/14 06:34:18;;;;;;;;;;;;;;;28.45;73.74;154816.52;1770090;81;21270;-75
2022/08/14 06:36:44;;;;;;;;;;;;;;;28.51;73.60;154832.25;1769387;81;20213;-76
2022/08/14 06:39:11;;;;;;;;;;;;;;;28.57;73.56;154846.70;1768752;81;20526;-76
2022/08/14 06:41:39;;;;;;;;;;;;;;;28.58;73.29;154850.61;1769001;81;20180;-76
2022/08/14 06:44:05;;;;;;;;;;;;;;;28.55;73.15;154842.75;1769016;81;20180;-76
2022/08/14 06:46:33;;;;;;;;;;;;;;;28.53;73.38;154837.50;1768948;81;21229;-76
2022/08/14 06:48:59;;;;;;;;;;;;;;;28.60;73.52;154855.86;1769493;81;20177;-75
2022/08/14 06:51:26;;;;;;;;;;;;;;;28.67;72.44;154871.66;1769677;81;20201;-76
2022/08/14 06:53:53;;;;;;;;;;;;;;;28.63;72.42;154861.11;1769518;81;20497;-76
2022/08/14 06:56:20;;;;;;;;;;;;;;;28.70;72.69;154880.80;1769708;81;20162;-75
2022/08/14 06:58:46;;;;;;;;;;;;;;;28.78;71.95;154900.50;1770123;81;21083;-76
2022/08/14 07:06:44;;;;;;;;;;;;;;;28.69;71.87;154878.19;1798242;79;20210;-76
2022/08/14 07:09:11;;;;;;;;;;;;;;;28.71;71.97;154882.14;1800950;79;20182;-75
2022/08/14 07:11:37;;;;;;;;;;;;;;;28.68;72.10;154875.56;1775155;79;22039;-76
2022/08/14 07:14:04;;;;;;;;;;;;;;;28.63;72.09;154861.11;1738964;82;20209;-75
2022/08/14 07:16:31;;;;;;;;;;;;;;;28.58;72.14;154850.61;1739037;82;20279;-76
2022/08/14 07:18:58;;;;;;;;;;;;;;;28.60;72.00;154855.86;1754854;81;20198;-59
2022/08/14 07:21:24;;;;;;;;;;;;;;;28.72;71.16;154884.77;1768383;81;20151;-76
2022/08/14 07:23:51;;;;;;;;;;;;;;;28.86;70.73;154921.58;1768273;81;21186;-76
2022/08/14 07:26:18;;;;;;;;;;;;;;;28.95;69.71;154943.86;1768524;81;20205;-75
2022/08/14 07:28:45;;;;;;;;;;;;;;;28.97;69.82;154949.16;1768053;81;20206;-59
2022/08/14 07:31:12;;;;;;;;;;;;;;;29.08;69.44;154976.72;1768088;81;20286;-58
2022/08/14 07:33:42;;;;;;;;;;;;;;;29.22;68.83;155010.84;1768533;81;20177;-59
2022/08/14 07:36:10;;;;;;;;;;;;;;;29.28;68.57;155026.58;1768160;81;21143;-78
2022/08/14 07:38:36;;;;;;;;;;;;;;;29.28;69.21;155026.58;1768450;81;20881;-76
2022/08/14 07:41:04;;;;;;;;;;;;;;;29.44;69.00;155068.66;1768112;81;20197;-77
2022/08/14 07:43:31;;;;;;;;;;;;;;;29.58;68.60;155102.83;1768082;81;20235;-76
2022/08/14 07:45:58;;;;;;;;;;;;;;;29.77;68.31;155150.11;1768238;81;20457;-76
2022/08/14 07:48:25;;;;;;;;;;;;;;;29.82;68.19;155163.23;1768277;81;21282;-76
2022/08/14 07:50:52;;;;;;;;;;;;;;;29.88;67.91;155178.98;1768064;81;20455;-77
2022/08/14 07:53:20;;;;;;;;;;;;;;;29.79;67.68;155156.66;1768285;81;20193;-77
2022/08/14 07:55:47;;;;;;;;;;;;;;;29.69;67.05;155130.41;1768411;81;20702;-76
2022/08/14 07:58:15;;;;;;;;;;;;;;;29.56;66.91;155098.86;1768126;81;20494;-59
2022/08/14 08:00:41;;;;;;;;;;;;;;;29.56;67.47;155098.86;1768029;81;21249;-59
2022/08/14 08:03:11;;;;;;;;;;;;;;;29.70;66.55;155134.31;1767962;81;20181;-60
2022/08/14 08:05:39;;;;;;;;;;;;;;;29.76;66.22;155147.50;1764659;81;20198;-59
2022/08/14 08:08:06;;;;;;;;;;;;;;;29.78;65.95;155154.03;1760369;81;20178;-59
2022/08/14 08:10:33;;;;;;;;;;;;;;;29.88;65.42;155178.98;1760614;80;20422;-60
2022/08/14 08:13:14;;;;;;;;;;;;;;;29.95;64.90;155197.36;1767916;81;21180;-61
2022/08/14 08:15:49;;;;;;;;;;;;;;;30.06;64.69;155225.00;1768365;81;20193;-61
2022/08/14 08:18:16;;;;;;;;;;;;;;;30.15;64.04;155247.33;1760852;81;20168;-74
2022/08/14 08:20:45;;;;;;;;;;;;;;;30.15;63.74;155247.33;1767624;81;20189;-74
2022/08/14 08:23:12;;;;;;;;;;;;;;;30.01;63.51;155213.20;1769685;81;20184;-75
2022/08/14 08:25:42;;;;;;;;;;;;;;;29.84;63.84;155168.48;1769937;81;21234;-75
2022/08/14 08:28:12;;;;;;;;;;;;;;;29.76;63.75;155147.50;1769812;81;20157;-75
2022/08/14 08:30:41;;;;;;;;;;;;;;;29.72;63.09;155138.28;1768059;79;20161;-74
2022/08/14 08:33:09;;;;;;;;;;;;;;;29.68;63.24;155129.06;1769124;81;20535;-60
2022/08/14 08:35:37;;;;;;;;;;;;;;;29.69;63.25;155131.69;1769607;81;20603;-59
2022/08/14 08:38:16;;;;;;;;;;;;;;;29.76;63.30;155147.50;1769415;81;21846;-59
2022/08/14 08:40:44;;;;;;;;;;;;;;;29.84;63.16;155168.48;1768637;79;20429;-59
2022/08/14 08:43:28;;;;;;;;;;;;;;;29.91;63.01;155186.86;1763770;79;20197;-59
2022/08/14 08:46:00;;;;;;;;;;;;;;;29.91;62.23;155185.56;1763511;81;20627;-59
2022/08/14 08:48:28;;;;;;;;;;;;;;;29.82;62.32;155163.23;1762040;79;20147;-59
2022/08/14 08:51:00;;;;;;;;;;;;;;;29.73;62.31;155140.91;1753940;81;21153;-59
2022/08/14 08:53:34;;;;;;;;;;;;;;;29.67;62.28;155126.44;1754188;81;20134;-59
2022/08/14 08:56:01;;;;;;;;;;;;;;;29.69;62.07;155131.69;1753809;81;20415;-60
2022/08/14 08:58:28;;;;;;;;;;;;;;;29.76;61.93;155147.50;1754101;81;20094;-60
2022/08/14 09:00:57;;;;;;;;;;;;;;;29.82;62.08;155163.23;1753683;81;20198;-60
2022/08/14 09:03:26;;;;;;;;;;;;;;;29.93;61.84;155190.81;1753793;81;21232;-60
2022/08/14 09:06:02;;;;;;;;;;;;;;;29.93;62.07;155192.11;1780027;79;20150;-75
2022/08/14 09:08:31;;;;;;;;;;;;;;;30.00;61.66;155210.53;1801675;79;20389;-76
2022/08/14 09:11:00;;;;;;;;;;;;;;;29.91;61.22;155185.56;1792163;79;20178;-60
2022/08/14 09:13:26;;;;;;;;;;;;;;;29.85;61.82;155171.11;1739394;82;20135;-60
2022/08/14 09:15:53;;;;;;;;;;;;;;;29.93;61.91;155192.11;1738910;82;21198;-59
2022/08/14 09:18:21;;;;;;;;;;;;;;;30.05;61.40;155221.08;1747396;81;20414;-60
2022/08/14 09:20:50;;;;;;;;;;;;;;;30.06;60.86;155223.70;1769444;81;20505;-60
2022/08/14 09:23:17;;;;;;;;;;;;;;;30.01;60.89;155213.20;1768222;81;20173;-76
2022/08/14 09:25:45;;;;;;;;;;;;;;;29.97;61.39;155202.66;1767886;79;20228;-60
2022/08/14 09:28:11;;;;;;;;;;;;;;;30.01;61.22;155211.81;1766605;79;21241;-60
2022/08/14 09:30:41;;;;;;;;;;;;;;;30.03;61.07;155215.83;1769370;81;20428;-60
2022/08/14 09:33:21;;;;;;;;;;;;;;;30.03;60.64;155215.83;1740263;82;20202;-60
2022/08/14 09:36:00;;;;;;;;;;;;;;;30.05;60.33;155221.08;1739090;82;20209;-60
2022/08/14 09:38:43;;;;;;;;;;;;;;;30.11;60.72;155238.17;1769379;81;20122;-60
2022/08/14 09:41:38;;;;;;;;;;;;;;;30.18;59.92;155255.25;1769399;81;21133;-60
2022/08/14 09:44:17;;;;;;;;;;;;;;;30.08;60.23;155228.95;1768189;81;20430;-59
2022/08/14 09:46:54;;;;;;;;;;;;;;;30.09;60.42;155231.58;1769410;81;20188;-60
2022/08/14 09:49:30;;;;;;;;;;;;;;;30.10;60.67;155234.20;1769391;81;20169;-60
2022/08/14 09:52:05;;;;;;;;;;;;;;;30.09;60.38;155231.58;1766764;81;20425;-60
2022/08/14 09:54:41;;;;;;;;;;;;;;;29.94;60.39;155193.44;1769651;81;21092;-60
2022/08/14 09:57:13;;;;;;;;;;;;;;;29.73;60.78;155142.25;1767638;81;20228;-60
2022/08/14 09:59:45;;;;;;;;;;;;;;;29.55;61.31;155094.95;1769204;81;20185;-60
2022/08/14 10:02:21;;;;;;;;;;;;;;;29.42;61.60;155063.41;1769170;81;20237;-60
2022/08/14 10:05:03;;;;;;;;;;;;;;;29.35;62.10;155045.00;1771928;80;20201;-59
2022/08/14 10:07:35;;;;;;;;;;;;;;;29.26;62.65;155022.67;1793673;80;21223;-60
2022/08/14 10:10:04;;;;;;;;;;;;;;;29.27;62.52;155023.95;1793648;80;20183;-61
2022/08/14 10:12:45;;;;;;;;;;;;;;;29.30;62.11;155031.88;1774746;80;20462;-75
2022/08/14 10:15:19;;;;;;;;;;;;;;;29.29;61.05;155029.20;1744219;81;20508;-75
2022/08/14 10:17:52;;;;;;;;;;;;;;;29.26;61.86;155021.33;1770076;81;20176;-76
2022/08/14 10:20:19;;;;;;;;;;;;;;;29.35;61.83;155045.00;1760943;81;21944;-75
2022/08/14 10:22:44;;;;;;;;;;;;;;;29.49;61.34;155079.16;1768466;81;20615;-75
2022/08/14 10:25:13;;;;;;;;;;;;;;;29.51;60.98;155085.73;1768882;81;20216;-76
2022/08/14 10:27:40;;;;;;;;;;;;;;;29.51;61.11;155084.41;1769139;81;20149;-76
2022/08/14 10:30:17;;;;;;;;;;;;;;;29.51;61.32;155084.41;1768787;81;20208;-74
2022/08/14 10:32:44;;;;;;;;;;;;;;;29.56;61.67;155097.58;1768816;81;21143;-60
2022/08/14 10:35:12;;;;;;;;;;;;;;;29.75;61.24;155144.86;1768988;81;20140;-59
2022/08/14 10:37:40;;;;;;;;;;;;;;;29.77;60.33;155151.41;1769027;81;20181;-59
2022/08/14 10:40:07;;;;;;;;;;;;;;;29.69;60.69;155131.69;1769228;81;20500;-59
2022/08/14 10:42:36;;;;;;;;;;;;;;;29.68;60.45;155127.78;1768720;81;21072;-58
2022/08/14 10:45:03;;;;;;;;;;;;;;;29.74;60.05;155143.53;1769422;81;21217;-72
2022/08/14 10:47:35;;;;;;;;;;;;;;;29.79;58.79;155156.66;1769765;81;20090;-73
2022/08/14 10:50:02;;;;;;;;;;;;;;;29.83;58.16;155165.86;1769013;81;20213;-59
2022/08/14 10:52:31;;;;;;;;;;;;;;;29.88;57.37;155178.98;1769271;81;20154;-59
2022/08/14 10:55:14;;;;;;;;;;;;;;;29.93;56.28;155190.81;1769508;81;20169;-60
2022/08/14 10:57:49;;;;;;;;;;;;;;;29.90;55.12;155182.94;1769489;81;21949;-59
2022/08/14 11:00:18;;;;;;;;;;;;;;;29.93;55.04;155192.11;1769317;81;20881;-59
2022/08/14 11:03:01;;;;;;;;;;;;;;;30.08;54.89;155230.30;1769803;81;20182;-59
2022/08/14 11:05:47;;;;;;;;;;;;;;;30.25;53.98;155273.63;1735136;82;20406;-59
2022/08/14 11:08:15;;;;;;;;;;;;;;;30.39;52.89;155309.09;1745844;80;20474;-58
2022/08/14 11:10:45;;;;;;;;;;;;;;;30.54;51.93;155347.19;1751531;81;21250;-60
2022/08/14 11:13:20;;;;;;;;;;;;;;;30.67;50.58;155380.09;1756044;81;20174;-60
2022/08/14 11:15:51;;;;;;;;;;;;;;;30.77;50.48;155403.77;1702293;84;20190;-59
2022/08/14 11:18:16;;;;;;;;;;;;;;;30.89;50.45;155434.00;1743770;81;20445;-60
2022/08/14 11:20:48;;;;;;;;;;;;;;;30.97;50.82;155455.00;1768379;81;20167;-75
2022/08/14 11:23:17;;;;;;;;;;;;;;;31.11;50.97;155491.81;1766744;81;21196;-76
2022/08/14 11:25:49;;;;;;;;;;;;;;;31.25;50.95;155526.00;1766176;81;20205;-76
2022/08/14 11:28:13;;;;;;;;;;;;;;;31.37;49.78;155557.58;1765232;81;20185;-76
2022/08/14 11:30:42;;;;;;;;;;;;;;;31.39;49.10;155561.50;1766852;81;20161;-60
2022/08/14 11:33:09;;;;;;;;;;;;;;;31.37;49.21;155557.58;1766713;81;20173;-76
2022/08/14 11:35:37;;;;;;;;;;;;;;;31.37;49.26;155557.58;1766641;81;21139;-60
2022/08/14 11:38:05;;;;;;;;;;;;;;;31.43;48.81;155573.34;1766584;81;20152;-76
2022/08/14 11:40:33;;;;;;;;;;;;;;;31.54;48.74;155599.66;1766663;81;20188;-76
2022/08/14 11:43:05;;;;;;;;;;;;;;;31.65;48.65;155628.56;1766797;81;20268;-76
2022/08/14 11:45:34;;;;;;;;;;;;;;;31.79;48.29;155662.81;1766903;81;20169;-76
2022/08/14 11:48:04;;;;;;;;;;;;;;;31.84;48.24;155677.28;1766651;81;21265;-76
2022/08/14 11:50:32;;;;;;;;;;;;;;;31.91;48.40;155694.34;1764825;81;20126;-77
2022/08/14 11:53:01;;;;;;;;;;;;;;;31.95;48.45;155704.89;1766603;81;20164;-76
2022/08/14 11:55:34;;;;;;;;;;;;;;;31.98;48.27;155712.78;1766544;81;20398;-76
2022/08/14 11:58:08;;;;;;;;;;;;;;;32.00;48.09;155716.69;1765765;81;20230;-76
2022/08/14 12:00:48;;;;;;;;;;;;;;;31.98;47.45;155712.78;1766802;81;21204;-76
2022/08/14 12:03:15;;;;;;;;;;;;;;;31.94;48.17;155700.92;1766417;81;20177;-76
2022/08/14 12:05:42;;;;;;;;;;;;;;;31.91;48.15;155694.34;1762988;81;20231;-76
2022/08/14 12:08:09;;;;;;;;;;;;;;;31.87;48.18;155683.83;1768694;81;20197;-76
2022/08/14 12:10:37;;;;;;;;;;;;;;;31.83;48.36;155673.31;1781901;80;20171;-75
2022/08/14 12:13:18;;;;;;;;;;;;;;;31.78;48.31;155661.47;1730233;83;21247;-75
2022/08/14 12:15:48;;;;;;;;;;;;;;;31.73;48.86;155649.63;1681425;85;20205;-60
2022/08/14 12:18:15;;;;;;;;;;;;;;;31.66;48.70;155631.19;1687664;84;20167;-60
2022/08/14 12:20:42;;;;;;;;;;;;;;;31.61;48.48;155616.70;1734605;82;21180;-59
2022/08/14 12:23:22;;;;;;;;;;;;;;;31.59;47.72;155614.09;1735803;82;20222;-60
2022/08/14 12:25:49;;;;;;;;;;;;;;;31.65;47.54;155627.27;1737707;82;21134;-60
2022/08/14 12:28:15;;;;;;;;;;;;;;;31.68;47.78;155636.44;1737408;82;20273;-61
2022/08/14 12:30:44;;;;;;;;;;;;;;;31.77;47.23;155658.84;1735286;82;20194;-76
2022/08/14 12:33:25;;;;;;;;;;;;;;;31.85;45.71;155678.56;1719811;82;20496;-75
2022/08/14 12:35:53;;;;;;;;;;;;;;;32.00;44.49;155718.03;1709445;84;20220;-76
2022/08/14 12:38:40;;;;;;;;;;;;;;;32.11;43.67;155744.31;1709640;84;21239;-75
2022/08/14 12:41:14;;;;;;;;;;;;;;;32.21;43.09;155770.64;1709564;83;20127;-75
2022/08/14 12:43:46;;;;;;;;;;;;;;;32.36;42.19;155808.81;1709646;84;20116;-74
2022/08/14 12:46:22;;;;;;;;;;;;;;;32.42;42.16;155823.30;1709095;84;20200;-75
2022/08/14 12:48:49;;;;;;;;;;;;;;;32.55;42.20;155856.17;1709777;84;20200;-75
2022/08/14 12:51:18;;;;;;;;;;;;;;;32.68;41.64;155889.05;1709510;84;21309;-75
2022/08/14 12:53:44;;;;;;;;;;;;;;;32.77;41.64;155912.70;1709833;84;20179;-74
2022/08/14 12:56:12;;;;;;;;;;;;;;;32.91;41.80;155948.27;1709531;84;20215;-74
2022/08/14 12:58:39;;;;;;;;;;;;;;;33.00;41.62;155970.64;1684084;84;21383;-73
2022/08/14 13:01:07;;;;;;;;;;;;;;;32.95;41.03;155958.83;1709673;84;20172;-74